Time;durP1;ratioP1;P1;durP2;ratioP2;P2;SDS_P1;SDS_P2;PMS_P1;PMS_P2;Temp;Humidity;BMP_temperature;BMP_pressure;BME280_temperature;BME280_humidity;BME280_pressure;Samples;Min_cycle;Max_cycle;Signal;HPM_P1;HPM_P2
2022/04/13 00:00:27;;;;;;;8.25;6.10;;;;;;;;;;4906316;29;20411;-88
2022/04/13 00:02:53;;;;;;;7.85;5.97;;;;;;;;;;4907639;29;20076;-89
2022/04/13 00:05:19;;;;;;;9.82;6.50;;;;;;;;;;4924068;29;20028;-89
2022/04/13 00:07:45;;;;;;;7.95;5.95;;;;;;;;;;4923684;29;20036;-87
2022/04/13 00:10:12;;;;;;;12.70;6.82;;;;;;;;;;4907189;29;20438;-89
2022/04/13 00:12:38;;;;;;;11.25;5.78;;;;;;;;;;4923737;29;20055;-89
2022/04/13 00:15:06;;;;;;;9.05;6.55;;;;;;;;;;4907415;29;20111;-91
2022/04/13 00:17:32;;;;;;;9.15;6.10;;;;;;;;;;4923754;29;20115;-90
2022/04/13 00:23:03;;;;;;;10.30;7.93;;;;;;;;;;4923795;29;20043;-90
2022/04/13 00:25:29;;;;;;;10.73;6.82;;;;;;;;;;4907141;29;20068;-89
2022/04/13 00:27:56;;;;;;;13.73;6.72;;;;;;;;;;4923831;29;20043;-89
2022/04/13 00:30:22;;;;;;;12.45;6.88;;;;;;;;;;4906823;29;20124;-89
2022/04/13 00:32:48;;;;;;;9.80;6.45;;;;;;;;;;4923670;29;20495;-90
2022/04/13 00:35:14;;;;;;;11.55;6.45;;;;;;;;;;4923327;29;20335;-90
2022/04/13 00:37:40;;;;;;;9.95;6.90;;;;;;;;;;4923604;29;20036;-88
2022/04/13 00:40:07;;;;;;;8.50;6.25;;;;;;;;;;4906545;29;20429;-89
2022/04/13 00:42:33;;;;;;;9.85;6.93;;;;;;;;;;4923441;29;20036;-89
2022/04/13 00:44:59;;;;;;;9.82;6.82;;;;;;;;;;4906708;29;20072;-89
2022/04/13 00:47:26;;;;;;;11.95;6.22;;;;;;;;;;4923357;29;20047;-89
2022/04/13 00:49:54;;;;;;;10.98;6.82;;;;;;;;;;4923299;29;20371;-88
2022/04/13 00:52:21;;;;;;;10.25;6.28;;;;;;;;;;4923260;29;20375;-88
2022/04/13 00:54:48;;;;;;;12.13;6.82;;;;;;;;;;4923198;29;20028;-89
2022/04/13 00:57:16;;;;;;;14.73;8.15;;;;;;;;;;4906841;29;20080;-88
2022/04/13 00:59:44;;;;;;;15.35;8.68;;;;;;;;;;4906415;29;20032;-88
2022/04/13 01:02:12;;;;;;;14.70;7.82;;;;;;;;;;4906582;29;20091;-87
2022/04/13 01:04:38;;;;;;;11.80;7.35;;;;;;;;;;4923044;29;20063;-89
2022/04/13 01:07:08;;;;;;;11.40;7.82;;;;;;;;;;4922914;29;20039;-89
2022/04/13 01:09:34;;;;;;;11.02;7.18;;;;;;;;;;4922988;29;20031;-88
2022/04/13 01:12:00;;;;;;;12.20;8.20;;;;;;;;;;4922866;29;20439;-89
2022/04/13 01:14:26;;;;;;;9.43;6.80;;;;;;;;;;4922815;29;20441;-89
2022/04/13 01:16:52;;;;;;;11.68;7.35;;;;;;;;;;4922881;29;20156;-88
2022/04/13 01:19:18;;;;;;;17.60;10.27;;;;;;;;;;4922724;29;20039;-89
2022/04/13 01:21:52;;;;;;;21.75;10.98;;;;;;;;;;4922512;29;20407;-88
2022/04/13 01:24:19;;;;;;;13.30;8.23;;;;;;;;;;4922894;29;20036;-90
2022/04/13 01:26:45;;;;;;;10.68;7.40;;;;;;;;;;4922740;29;20072;-89
2022/04/13 01:29:12;;;;;;;10.48;7.50;;;;;;;;;;4922675;29;20450;-89
2022/04/13 01:31:38;;;;;;;12.18;6.85;;;;;;;;;;4906184;29;20073;-88
2022/04/13 01:34:05;;;;;;;11.75;7.43;;;;;;;;;;4922272;29;20445;-88
2022/04/13 01:36:33;;;;;;;12.23;8.20;;;;;;;;;;4922777;29;20024;-89
2022/04/13 01:38:59;;;;;;;12.45;8.50;;;;;;;;;;4922646;29;20033;-88
2022/04/13 01:41:25;;;;;;;17.75;8.80;;;;;;;;;;4922113;29;20067;-89
2022/04/13 01:43:51;;;;;;;18.00;10.13;;;;;;;;;;4922353;29;20091;-89
2022/04/13 01:46:17;;;;;;;23.05;12.55;;;;;;;;;;4905568;29;20035;-89
2022/04/13 01:48:43;;;;;;;23.10;13.00;;;;;;;;;;4905580;29;20028;-89
2022/04/13 01:51:10;;;;;;;25.05;14.32;;;;;;;;;;4905548;29;20058;-90
2022/04/13 01:53:36;;;;;;;31.70;15.93;;;;;;;;;;4922140;29;20403;-89
2022/04/13 01:56:02;;;;;;;24.40;15.10;;;;;;;;;;4905458;29;20032;-89
2022/04/13 01:58:28;;;;;;;29.95;19.02;;;;;;;;;;4922103;29;20415;-89
2022/04/13 02:00:54;;;;;;;29.58;17.58;;;;;;;;;;4921855;29;20028;-89
2022/04/13 02:03:27;;;;;;;35.22;21.13;;;;;;;;;;4905440;29;20319;-89
2022/04/13 02:05:53;;;;;;;47.17;24.13;;;;;;;;;;4922174;29;20028;-89
2022/04/13 02:08:22;;;;;;;49.30;25.05;;;;;;;;;;4922060;29;20361;-89
2022/04/13 02:10:49;;;;;;;52.65;25.55;;;;;;;;;;4905118;29;20043;-88
2022/04/13 02:13:15;;;;;;;63.92;29.55;;;;;;;;;;4921672;29;20036;-88
2022/04/13 02:15:42;;;;;;;93.90;38.20;;;;;;;;;;4921720;29;20028;-88
2022/04/13 02:18:08;;;;;;;86.63;34.67;;;;;;;;;;4905054;29;20327;-88
2022/04/13 02:20:34;;;;;;;103.93;39.70;;;;;;;;;;4904423;29;20040;-88
2022/04/13 02:23:03;;;;;;;65.22;26.73;;;;;;;;;;4921129;29;20031;-87
2022/04/13 02:25:29;;;;;;;36.30;16.80;;;;;;;;;;4904915;29;20076;-89
2022/04/13 02:27:56;;;;;;;23.52;11.65;;;;;;;;;;4921515;29;20071;-88
2022/04/13 02:30:22;;;;;;;19.35;11.02;;;;;;;;;;4921985;29;20115;-89
2022/04/13 02:32:48;;;;;;;23.42;12.05;;;;;;;;;;4905057;29;20028;-88
2022/04/13 02:35:14;;;;;;;20.90;10.93;;;;;;;;;;4921527;29;20028;-88
2022/04/13 02:37:43;;;;;;;20.92;10.40;;;;;;;;;;4921571;29;20023;-90
2022/04/13 02:40:09;;;;;;;15.40;10.05;;;;;;;;;;4921212;29;20057;-90
2022/04/13 02:42:36;;;;;;;14.90;9.20;;;;;;;;;;4904387;29;20072;-91
2022/04/13 02:45:03;;;;;;;15.82;9.10;;;;;;;;;;4921423;29;20047;-90
2022/04/13 02:47:29;;;;;;;13.50;9.30;;;;;;;;;;4921445;29;20351;-89
2022/04/13 02:49:55;;;;;;;14.05;8.95;;;;;;;;;;4904799;29;20028;-90
2022/04/13 02:52:23;;;;;;;15.90;10.68;;;;;;;;;;4904502;29;20039;-89
2022/04/13 02:54:49;;;;;;;21.27;13.40;;;;;;;;;;4921347;29;20028;-89
2022/04/13 02:57:15;;;;;;;20.27;13.70;;;;;;;;;;4921471;29;20088;-89
2022/04/13 02:59:46;;;;;;;19.98;12.32;;;;;;;;;;4921328;29;20029;-89
2022/04/13 03:02:12;;;;;;;19.48;12.35;;;;;;;;;;4921254;29;20028;-90
2022/04/13 03:04:38;;;;;;;21.50;14.00;;;;;;;;;;4921503;29;20024;-90
2022/04/13 03:10:08;;;;;;;19.92;13.15;;;;;;;;;;4920962;29;20079;-90
2022/04/13 03:12:34;;;;;;;25.30;13.90;;;;;;;;;;4904357;29;20401;-89
2022/04/13 03:15:05;;;;;;;19.45;13.77;;;;;;;;;;4900906;29;20060;-88
2022/04/13 03:17:31;;;;;;;22.50;13.48;;;;;;;;;;4902263;29;20051;-88
2022/04/13 03:19:57;;;;;;;18.75;14.50;;;;;;;;;;4899378;29;20044;-90
2022/04/13 03:22:42;;;;;;;21.95;14.32;;;;;;;;;;4921081;29;20120;-88
2022/04/13 03:25:08;;;;;;;18.95;13.07;;;;;;;;;;4920812;29;20112;-89
2022/04/13 03:27:34;;;;;;;20.50;13.45;;;;;;;;;;4903964;29;20032;-90
2022/04/13 03:30:00;;;;;;;20.45;11.82;;;;;;;;;;4901160;29;20307;-90
2022/04/13 03:32:26;;;;;;;19.73;11.52;;;;;;;;;;4902048;29;20430;-90
2022/04/13 03:34:52;;;;;;;18.95;10.35;;;;;;;;;;4916437;29;20024;-90
2022/04/13 03:37:19;;;;;;;16.60;10.20;;;;;;;;;;4924998;29;20066;-88
2022/04/13 03:39:45;;;;;;;15.43;9.73;;;;;;;;;;4924289;29;20051;-88
2022/04/13 03:42:11;;;;;;;17.42;9.80;;;;;;;;;;4924493;29;20032;-86
2022/04/13 03:44:37;;;;;;;13.15;8.90;;;;;;;;;;4924258;29;20032;-86
2022/04/13 03:47:03;;;;;;;15.70;9.05;;;;;;;;;;4904461;29;20032;-86
2022/04/13 03:49:29;;;;;;;16.83;9.35;;;;;;;;;;4905470;29;20020;-86
2022/04/13 03:51:55;;;;;;;18.58;9.43;;;;;;;;;;4905588;29;20024;-86
2022/04/13 03:54:21;;;;;;;17.33;9.40;;;;;;;;;;4905058;29;20048;-86
2022/04/13 03:56:47;;;;;;;15.93;9.63;;;;;;;;;;4905242;29;20343;-86
2022/04/13 03:59:13;;;;;;;14.07;8.82;;;;;;;;;;4905433;29;20364;-86
2022/04/13 04:01:40;;;;;;;18.58;9.93;;;;;;;;;;4888017;29;20040;-86
2022/04/13 04:04:06;;;;;;;19.27;9.85;;;;;;;;;;4905234;29;20032;-86
2022/04/13 04:06:32;;;;;;;17.55;9.85;;;;;;;;;;4905104;29;20439;-86
2022/04/13 04:08:58;;;;;;;16.45;9.55;;;;;;;;;;4888051;29;20033;-86
2022/04/13 04:11:24;;;;;;;16.58;9.63;;;;;;;;;;4909408;29;20438;-84
2022/04/13 04:13:50;;;;;;;17.70;8.93;;;;;;;;;;4907010;29;20323;-86
2022/04/13 04:16:16;;;;;;;20.17;8.80;;;;;;;;;;4924055;29;20020;-86
2022/04/13 04:18:42;;;;;;;28.50;15.57;;;;;;;;;;4923886;29;20035;-87
2022/04/13 04:21:09;;;;;;;23.80;13.20;;;;;;;;;;4906643;29;20036;-87
2022/04/13 04:23:35;;;;;;;20.67;10.75;;;;;;;;;;4923281;29;20060;-86
2022/04/13 04:26:01;;;;;;;35.15;10.48;;;;;;;;;;4923534;29;20035;-87
2022/04/13 04:28:27;;;;;;;25.02;9.40;;;;;;;;;;4906864;29;20063;-88
2022/04/13 04:30:53;;;;;;;24.42;10.52;;;;;;;;;;4906989;29;20032;-86
2022/04/13 04:33:19;;;;;;;23.58;10.98;;;;;;;;;;4906763;29;20114;-86
2022/04/13 04:35:47;;;;;;;40.50;10.77;;;;;;;;;;4923599;29;20055;-87
2022/04/13 04:38:13;;;;;;;24.90;9.13;;;;;;;;;;4906895;29;20032;-86
2022/04/13 04:40:40;;;;;;;24.75;10.10;;;;;;;;;;4922855;29;20040;-86
2022/04/13 04:43:06;;;;;;;22.92;12.75;;;;;;;;;;4923158;29;20036;-86
2022/04/13 04:45:32;;;;;;;40.72;22.85;;;;;;;;;;4922665;29;20393;-86
2022/04/13 04:48:04;;;;;;;45.97;25.80;;;;;;;;;;4923260;29;20024;-87
2022/04/13 04:50:30;;;;;;;32.97;20.55;;;;;;;;;;4923583;29;20315;-86
2022/04/13 04:52:56;;;;;;;31.50;19.30;;;;;;;;;;4906556;29;20454;-87
2022/04/13 04:55:22;;;;;;;28.90;17.58;;;;;;;;;;4922955;29;20032;-86
2022/04/13 04:57:49;;;;;;;23.88;15.00;;;;;;;;;;4923374;29;20055;-86
2022/04/13 05:00:19;;;;;;;18.98;12.15;;;;;;;;;;4923108;29;20028;-86
2022/04/13 05:02:54;;;;;;;17.85;10.85;;;;;;;;;;4923089;29;20024;-86
2022/04/13 05:05:20;;;;;;;19.50;10.93;;;;;;;;;;4922975;29;20050;-86
2022/04/13 05:07:46;;;;;;;30.48;11.98;;;;;;;;;;4922601;29;20020;-86
2022/04/13 05:10:13;;;;;;;17.67;11.55;;;;;;;;;;4922854;29;20100;-86
2022/04/13 05:12:46;;;;;;;20.52;10.45;;;;;;;;;;4906054;29;20474;-86
2022/04/13 05:15:12;;;;;;;19.10;10.18;;;;;;;;;;4905952;29;20032;-86
2022/04/13 05:17:38;;;;;;;17.52;11.05;;;;;;;;;;4922769;29;20067;-86
2022/04/13 05:20:06;;;;;;;18.85;10.15;;;;;;;;;;4906185;29;20036;-87
2022/04/13 05:22:32;;;;;;;17.25;10.13;;;;;;;;;;4922672;29;20427;-86
2022/04/13 05:25:07;;;;;;;15.75;9.80;;;;;;;;;;4921416;29;20032;-87
2022/04/13 05:27:33;;;;;;;20.58;10.63;;;;;;;;;;4922799;29;20028;-85
2022/04/13 05:29:59;;;;;;;20.55;11.35;;;;;;;;;;4922776;29;20035;-86
2022/04/13 05:32:25;;;;;;;28.20;13.10;;;;;;;;;;4922460;29;20103;-85
2022/04/13 05:34:57;;;;;;;24.02;12.45;;;;;;;;;;4905900;29;20031;-86
2022/04/13 05:37:23;;;;;;;19.00;9.60;;;;;;;;;;4922378;29;20028;-86
2022/04/13 05:39:49;;;;;;;19.50;11.05;;;;;;;;;;4922064;29;20025;-86
2022/04/13 05:42:15;;;;;;;19.77;11.10;;;;;;;;;;4922562;29;20028;-86
2022/04/13 05:44:41;;;;;;;21.48;9.70;;;;;;;;;;4905548;29;20020;-86
2022/04/13 05:47:07;;;;;;;18.75;10.65;;;;;;;;;;4921854;29;20028;-86
2022/04/13 05:49:35;;;;;;;17.98;10.93;;;;;;;;;;4922152;29;20358;-86
2022/04/13 05:52:01;;;;;;;16.75;9.48;;;;;;;;;;4922209;29;20518;-87
2022/04/13 05:54:27;;;;;;;18.63;9.15;;;;;;;;;;4905237;29;20367;-86
2022/04/13 05:56:53;;;;;;;12.27;8.57;;;;;;;;;;4921286;29;20463;-86
2022/04/13 05:59:19;;;;;;;13.68;8.50;;;;;;;;;;4922103;29;20063;-86
2022/04/13 06:01:45;;;;;;;14.95;7.57;;;;;;;;;;4922078;29;20055;-86
2022/04/13 06:04:12;;;;;;;12.50;7.78;;;;;;;;;;4905708;29;20312;-86
2022/04/13 06:06:38;;;;;;;11.90;8.05;;;;;;;;;;4922082;29;20024;-86
2022/04/13 06:09:04;;;;;;;9.95;6.50;;;;;;;;;;4921985;29;20024;-86
2022/04/13 06:11:30;;;;;;;9.70;6.80;;;;;;;;;;4904957;29;20071;-87
2022/04/13 06:13:57;;;;;;;8.82;5.32;;;;;;;;;;4921623;29;20044;-86
2022/04/13 06:16:23;;;;;;;7.95;5.30;;;;;;;;;;4921869;29;20035;-85
2022/04/13 06:18:49;;;;;;;10.63;5.30;;;;;;;;;;4921655;29;20395;-83
2022/04/13 06:21:15;;;;;;;11.70;5.60;;;;;;;;;;4904551;29;20339;-86
2022/04/13 06:23:41;;;;;;;8.77;4.78;;;;;;;;;;4905322;29;20404;-85
2022/04/13 06:26:07;;;;;;;9.50;5.10;;;;;;;;;;4921821;29;20055;-86
2022/04/13 06:28:33;;;;;;;11.35;5.88;;;;;;;;;;4921818;29;20108;-86
2022/04/13 06:30:59;;;;;;;12.15;5.85;;;;;;;;;;4904905;29;20028;-87
2022/04/13 06:33:25;;;;;;;8.40;5.18;;;;;;;;;;4921434;29;20401;-89
2022/04/13 06:35:51;;;;;;;11.80;5.68;;;;;;;;;;4921484;29;20028;-89
2022/04/13 06:38:17;;;;;;;10.38;5.57;;;;;;;;;;4904830;29;20029;-88
2022/04/13 06:40:43;;;;;;;10.15;5.55;;;;;;;;;;4904552;29;20456;-88
2022/04/13 06:43:09;;;;;;;9.88;5.68;;;;;;;;;;4921379;29;20051;-88
2022/04/13 06:45:36;;;;;;;11.25;5.53;;;;;;;;;;4921754;29;20324;-89
2022/04/13 06:48:03;;;;;;;7.90;5.75;;;;;;;;;;4921654;29;20028;-89
2022/04/13 06:50:29;;;;;;;19.52;12.02;;;;;;;;;;4921271;29;20422;-87
2022/04/13 06:52:55;;;;;;;31.08;20.38;;;;;;;;;;4921250;29;20043;-88
2022/04/13 06:55:21;;;;;;;12.05;7.10;;;;;;;;;;4921267;29;20300;-89
2022/04/13 06:57:47;;;;;;;10.30;5.47;;;;;;;;;;4904740;29;20036;-89
2022/04/13 07:00:13;;;;;;;7.47;5.10;;;;;;;;;;4904398;29;20024;-89
2022/04/13 07:02:40;;;;;;;11.90;5.65;;;;;;;;;;4921423;29;20035;-89
2022/04/13 07:05:06;;;;;;;12.90;4.95;;;;;;;;;;4921553;29;20024;-88
2022/04/13 07:07:33;;;;;;;13.18;4.95;;;;;;;;;;4904505;29;20028;-89
2022/04/13 07:09:59;;;;;;;9.80;5.30;;;;;;;;;;4924520;29;20072;-90
2022/04/13 07:12:25;;;;;;;11.82;7.10;;;;;;;;;;4908298;29;20192;-91
2022/04/13 07:14:51;;;;;;;11.98;5.88;;;;;;;;;;4908438;29;20038;-90
2022/04/13 07:17:17;;;;;;;12.30;6.57;;;;;;;;;;4908439;29;20039;-90
2022/04/13 07:19:43;;;;;;;15.05;8.43;;;;;;;;;;4925022;29;20044;-90
2022/04/13 07:22:09;;;;;;;12.50;7.03;;;;;;;;;;4908148;29;20342;-91
2022/04/13 07:24:36;;;;;;;7.30;4.10;;;;;;;;;;4925100;29;20048;-91
2022/04/13 07:27:02;;;;;;;8.15;4.55;;;;;;;;;;4908164;29;20036;-89
2022/04/13 07:29:28;;;;;;;6.30;3.90;;;;;;;;;;4924967;29;20119;-88
2022/04/13 07:31:54;;;;;;;9.38;4.50;;;;;;;;;;4924642;29;20403;-89
2022/04/13 07:34:20;;;;;;;5.95;4.10;;;;;;;;;;4924732;29;20032;-88
2022/04/13 07:36:46;;;;;;;4.30;3.03;;;;;;;;;;4924754;29;20424;-90
2022/04/13 07:39:12;;;;;;;8.25;3.50;;;;;;;;;;4908059;29;20032;-90
2022/04/13 07:41:38;;;;;;;5.60;3.47;;;;;;;;;;4924285;29;20032;-89
2022/04/13 07:44:05;;;;;;;6.38;3.28;;;;;;;;;;4924883;29;20425;-91
2022/04/13 07:46:31;;;;;;;6.35;2.83;;;;;;;;;;4907510;29;20036;-91
2022/04/13 07:48:57;;;;;;;6.15;2.70;;;;;;;;;;4924479;29;20323;-90
2022/04/13 07:51:23;;;;;;;6.40;2.63;;;;;;;;;;4907738;29;20036;-89
2022/04/13 07:53:49;;;;;;;5.20;2.60;;;;;;;;;;4924358;29;20028;-93
2022/04/13 07:56:15;;;;;;;9.50;2.78;;;;;;;;;;4924541;29;20363;-90
2022/04/13 07:58:41;;;;;;;5.53;2.80;;;;;;;;;;4907636;29;20051;-90
2022/04/13 08:01:07;;;;;;;4.80;3.00;;;;;;;;;;4924390;29;20402;-91
2022/04/13 08:03:33;;;;;;;4.55;2.70;;;;;;;;;;4924470;29;20063;-90
2022/04/13 08:06:00;;;;;;;6.90;2.97;;;;;;;;;;4924133;29;20027;-90
2022/04/13 08:08:26;;;;;;;6.40;2.50;;;;;;;;;;4923977;29;20028;-90
2022/04/13 08:10:52;;;;;;;5.85;2.67;;;;;;;;;;4907244;29;20039;-90
2022/04/13 08:13:18;;;;;;;7.00;3.35;;;;;;;;;;4907325;29;20036;-90
2022/04/13 08:15:44;;;;;;;7.93;2.70;;;;;;;;;;4907178;29;20198;-90
2022/04/13 08:18:10;;;;;;;5.97;2.83;;;;;;;;;;4907326;29;20032;-90
2022/04/13 08:20:36;;;;;;;5.93;3.13;;;;;;;;;;4922737;29;20028;-91
2022/04/13 08:23:02;;;;;;;6.70;3.35;;;;;;;;;;4907249;29;20423;-90
2022/04/13 08:25:28;;;;;;;6.38;3.30;;;;;;;;;;4923732;29;20390;-91
2022/04/13 08:27:54;;;;;;;8.65;3.03;;;;;;;;;;4923625;29;20028;-91
2022/04/13 08:30:20;;;;;;;5.20;2.53;;;;;;;;;;4923708;29;20075;-90
2022/04/13 08:32:47;;;;;;;7.20;3.90;;;;;;;;;;4907006;29;20323;-90
2022/04/13 08:35:13;;;;;;;10.40;3.53;;;;;;;;;;4923403;29;20115;-90
2022/04/13 08:37:39;;;;;;;7.53;2.88;;;;;;;;;;4923908;29;20052;-90
2022/04/13 08:40:06;;;;;;;7.43;3.00;;;;;;;;;;4923004;29;20407;-90
2022/04/13 08:42:35;;;;;;;7.28;3.10;;;;;;;;;;4906829;29;20044;-92
2022/04/13 08:45:16;;;;;;;12.48;3.45;;;;;;;;;;4923285;29;20111;-90
2022/04/13 08:47:44;;;;;;;5.80;3.00;;;;;;;;;;4906786;29;20518;-90
2022/04/13 08:50:12;;;;;;;5.45;2.80;;;;;;;;;;4923181;29;20039;-89
2022/04/13 08:52:39;;;;;;;7.75;2.90;;;;;;;;;;4906711;29;20024;-90
2022/04/13 08:55:05;;;;;;;6.38;3.42;;;;;;;;;;4923205;29;20024;-90
2022/04/13 08:57:39;;;;;;;8.05;3.42;;;;;;;;;;4906528;29;20091;-89
2022/04/13 09:00:05;;;;;;;5.93;3.10;;;;;;;;;;4923484;29;20028;-89
2022/04/13 09:02:49;;;;;;;7.97;3.03;;;;;;;;;;4923225;29;20051;-90
2022/04/13 09:05:16;;;;;;;8.15;3.13;;;;;;;;;;4923151;29;20079;-91
2022/04/13 09:07:48;;;;;;;5.13;2.95;;;;;;;;;;4906276;29;20130;-94
2022/04/13 09:10:18;;;;;;;6.38;3.10;;;;;;;;;;4922828;29;20040;-96
2022/04/13 09:12:45;;;;;;;8.90;4.05;;;;;;;;;;4923370;29;20067;-95
2022/04/13 09:15:12;;;;;;;7.35;2.92;;;;;;;;;;4906710;29;20050;-95
2022/04/13 09:17:38;;;;;;;7.88;4.10;;;;;;;;;;4923619;29;20029;-95
2022/04/13 09:20:05;;;;;;;5.65;3.35;;;;;;;;;;4923294;29;20044;-95
2022/04/13 09:22:32;;;;;;;5.57;3.25;;;;;;;;;;4923389;29;20031;-95
2022/04/13 09:24:59;;;;;;;5.63;3.05;;;;;;;;;;4906414;29;20364;-96
2022/04/13 09:27:25;;;;;;;16.02;10.93;;;;;;;;;;4906590;29;20064;-91
2022/04/13 09:29:51;;;;;;;19.55;10.38;;;;;;;;;;4906035;29;20433;-92
2022/04/13 09:32:18;;;;;;;9.98;6.57;;;;;;;;;;4905913;29;20040;-92
2022/04/13 09:34:44;;;;;;;5.82;3.72;;;;;;;;;;4905989;29;20072;-94
2022/04/13 09:40:27;;;;;;;7.10;3.33;;;;;;;;;;4922449;29;20038;-95
2022/04/13 09:43:03;;;;;;;6.63;3.10;;;;;;;;;;4906307;29;20032;-94
2022/04/13 09:45:33;;;;;;;8.23;2.85;;;;;;;;;;4922699;29;20046;-93
2022/04/13 09:47:59;;;;;;;6.22;3.20;;;;;;;;;;4922251;29;20030;-95
2022/04/13 09:50:25;;;;;;;7.80;4.25;;;;;;;;;;4922376;29;20363;-95
2022/04/13 09:52:57;;;;;;;5.60;3.67;;;;;;;;;;4922435;29;20052;-94
2022/04/13 09:55:23;;;;;;;;;;;;;;;;;;4922528;29;20111;-94
2022/04/13 09:57:50;;;;;;;6.38;3.60;;;;;;;;;;4922052;29;19946;-94
2022/04/13 10:00:16;;;;;;;5.88;3.08;;;;;;;;;;4922093;29;20059;-94
2022/04/13 10:02:43;;;;;;;10.80;6.78;;;;;;;;;;4905515;29;20474;-95
2022/04/13 10:05:10;;;;;;;7.10;4.57;;;;;;;;;;4922182;29;20020;-94
2022/04/13 10:07:36;;;;;;;7.88;3.63;;;;;;;;;;4922119;29;20044;-95
2022/04/13 10:10:03;;;;;;;7.93;3.25;;;;;;;;;;4921850;29;20030;-96
2022/04/13 10:12:46;;;;;;;6.72;3.03;;;;;;;;;;4905816;29;20051;-95
2022/04/13 10:15:12;;;;;;;5.63;2.85;;;;;;;;;;4921891;29;20055;-95
2022/04/13 10:17:39;;;;;;;6.78;2.67;;;;;;;;;;4921992;29;20024;-95
2022/04/13 10:20:05;;;;;;;5.82;2.60;;;;;;;;;;4905030;29;20032;-94
2022/04/13 10:22:31;;;;;;;4.80;3.17;;;;;;;;;;4921962;29;20293;-94
2022/04/13 10:25:16;;;;;;;4.47;2.85;;;;;;;;;;4905255;29;20032;-96
2022/04/13 10:27:52;;;;;;;14.45;3.90;;;;;;;;;;4905294;29;20382;-95
2022/04/13 10:30:24;;;;;;;9.63;3.58;;;;;;;;;;4921818;29;20032;-96
2022/04/13 10:32:58;;;;;;;6.35;3.40;;;;;;;;;;4921895;29;20032;-96
2022/04/13 10:35:26;;;;;;;12.68;4.07;;;;;;;;;;4923339;29;20035;-94
2022/04/13 10:37:52;;;;;;;6.30;2.80;;;;;;;;;;4923255;29;20036;-96
2022/04/13 10:40:20;;;;;;;5.10;3.00;;;;;;;;;;4904736;29;20478;-96
2022/04/13 10:42:48;;;;;;;10.60;5.88;;;;;;;;;;4904684;29;20072;-95
2022/04/13 10:45:14;;;;;;;7.35;2.90;;;;;;;;;;4921758;29;20024;-95
2022/04/13 10:47:52;;;;;;;9.43;4.57;;;;;;;;;;4921740;29;20071;-94
2022/04/13 10:50:21;;;;;;;6.35;2.90;;;;;;;;;;4921734;29;20078;-94
2022/04/13 10:53:06;;;;;;;3.92;2.75;;;;;;;;;;4921737;29;20051;-94
2022/04/13 10:55:34;;;;;;;13.50;6.72;;;;;;;;;;4904700;29;20032;-94
2022/04/13 10:58:11;;;;;;;7.32;3.42;;;;;;;;;;4889047;29;20419;-95
2022/04/13 11:00:38;;;;;;;7.05;3.88;;;;;;;;;;4921116;29;20032;-94
2022/04/13 11:03:05;;;;;;;4.78;3.10;;;;;;;;;;4921277;29;20619;-94
2022/04/13 11:05:32;;;;;;;42.85;25.30;;;;;;;;;;4904758;29;20167;-94
2022/04/13 11:07:58;;;;;;;5.40;4.15;;;;;;;;;;4904799;29;20028;-94
2022/04/13 11:10:24;;;;;;;10.02;4.63;;;;;;;;;;4904535;29;20466;-95
2022/04/13 11:12:51;;;;;;;4.32;2.97;;;;;;;;;;4921178;29;20060;-94
2022/04/13 11:15:18;;;;;;;10.90;5.78;;;;;;;;;;4904720;29;20024;-94
2022/04/13 11:17:44;;;;;;;6.60;2.70;;;;;;;;;;4904451;29;20032;-93
2022/04/13 11:20:23;;;;;;;6.10;2.80;;;;;;;;;;4921339;29;20039;-95
2022/04/13 11:23:08;;;;;;;9.77;2.35;;;;;;;;;;4904661;29;20490;-94
2022/04/13 11:25:45;;;;;;;5.28;2.70;;;;;;;;;;4921169;29;20034;-94
2022/04/13 11:28:11;;;;;;;12.25;3.00;;;;;;;;;;4921121;29;20028;-95
2022/04/13 11:30:56;;;;;;;6.22;2.83;;;;;;;;;;4921232;29;20063;-93
2022/04/13 11:33:22;;;;;;;5.32;2.38;;;;;;;;;;4920981;29;20032;-93
2022/04/13 11:35:48;;;;;;;4.40;2.90;;;;;;;;;;4921064;29;20039;-93
2022/04/13 11:38:16;;;;;;;5.43;2.83;;;;;;;;;;4921013;29;20024;-92
2022/04/13 11:41:01;;;;;;;6.82;2.90;;;;;;;;;;4904449;29;20116;-93
2022/04/13 11:43:27;;;;;;;5.60;3.10;;;;;;;;;;4920979;29;20108;-92
2022/04/13 11:45:55;;;;;;;6.00;2.80;;;;;;;;;;4904114;29;20034;-92
2022/04/13 11:48:35;;;;;;;5.40;2.70;;;;;;;;;;4921044;29;20085;-94
2022/04/13 11:51:19;;;;;;;5.68;2.70;;;;;;;;;;4920853;29;20056;-93
2022/04/13 11:53:55;;;;;;;3.88;2.90;;;;;;;;;;4921034;29;20052;-92
2022/04/13 11:56:31;;;;;;;3.97;2.80;;;;;;;;;;4923205;29;20036;-94
2022/04/13 11:58:57;;;;;;;7.88;3.35;;;;;;;;;;4924479;29;20411;-94
2022/04/13 12:01:25;;;;;;;9.32;3.85;;;;;;;;;;4908284;29;20036;-92
2022/04/13 12:03:52;;;;;;;6.13;3.20;;;;;;;;;;4925616;29;20406;-93
2022/04/13 12:06:19;;;;;;;5.78;3.05;;;;;;;;;;4925244;29;20067;-92
2022/04/13 12:08:52;;;;;;;5.45;2.53;;;;;;;;;;4925284;29;20334;-93
2022/04/13 12:11:18;;;;;;;5.20;2.58;;;;;;;;;;4908663;29;20044;-94
2022/04/13 12:13:51;;;;;;;4.30;2.90;;;;;;;;;;4924887;29;20043;-92
2022/04/13 12:16:20;;;;;;;4.18;2.40;;;;;;;;;;4908536;29;20024;-94
2022/04/13 12:18:47;;;;;;;4.93;2.70;;;;;;;;;;4907495;29;20450;-92
2022/04/13 12:21:16;;;;;;;5.85;2.65;;;;;;;;;;4924411;29;20032;-95
2022/04/13 12:23:48;;;;;;;13.82;7.97;;;;;;;;;;4924777;29;20033;-94
2022/04/13 12:26:15;;;;;;;5.88;3.20;;;;;;;;;;4924039;29;20035;-93
2022/04/13 12:28:41;;;;;;;5.15;2.83;;;;;;;;;;4924197;29;20032;-93
2022/04/13 12:31:08;;;;;;;4.32;2.60;;;;;;;;;;4924054;29;20415;-93
2022/04/13 12:33:35;;;;;;;5.15;2.65;;;;;;;;;;4907541;29;20028;-95
2022/04/13 12:36:02;;;;;;;4.30;2.85;;;;;;;;;;4907491;29;20021;-93
2022/04/13 12:38:29;;;;;;;10.80;6.85;;;;;;;;;;4923589;29;20032;-94
2022/04/13 12:41:12;;;;;;;8.13;2.88;;;;;;;;;;4924001;29;20043;-94
2022/04/13 12:43:41;;;;;;;6.50;4.15;;;;;;;;;;4924070;29;20059;-95
2022/04/13 12:46:15;;;;;;;4.70;2.85;;;;;;;;;;4907170;29;20029;-93
2022/04/13 12:48:42;;;;;;;3.67;2.90;;;;;;;;;;4923692;29;20075;-95
2022/04/13 12:51:08;;;;;;;7.18;3.30;;;;;;;;;;4923635;29;20384;-95
2022/04/13 12:53:48;;;;;;;5.03;2.63;;;;;;;;;;4906671;29;20055;-93
2022/04/13 12:56:16;;;;;;;3.60;2.45;;;;;;;;;;4906589;29;20040;-93
2022/04/13 12:58:42;;;;;;;4.13;3.00;;;;;;;;;;4923181;29;20445;-94
2022/04/13 13:01:10;;;;;;;8.25;5.88;;;;;;;;;;4906485;29;20043;-93
2022/04/13 13:03:40;;;;;;;3.72;2.80;;;;;;;;;;4923283;29;20028;-94
2022/04/13 13:06:09;;;;;;;5.18;3.58;;;;;;;;;;4922599;29;20039;-93
2022/04/13 13:08:37;;;;;;;7.55;5.10;;;;;;;;;;4906278;29;20039;-95
2022/04/13 13:11:08;;;;;;;7.95;3.80;;;;;;;;;;4923157;29;20423;-93
2022/04/13 13:13:38;;;;;;;4.30;2.75;;;;;;;;;;4906399;29;20036;-94
2022/04/13 13:16:05;;;;;;;4.70;3.50;;;;;;;;;;4922068;29;20028;-93
2022/04/13 13:18:31;;;;;;;3.88;2.90;;;;;;;;;;4921696;29;20331;-89
2022/04/13 13:20:58;;;;;;;4.03;2.88;;;;;;;;;;4906421;29;20036;-91
2022/04/13 13:23:25;;;;;;;9.02;4.07;;;;;;;;;;4922636;29;20031;-89
2022/04/13 13:25:52;;;;;;;6.43;3.33;;;;;;;;;;4922713;29;20020;-90
2022/04/13 13:28:24;;;;;;;5.65;3.00;;;;;;;;;;4906327;29;20031;-90
2022/04/13 13:30:51;;;;;;;3.88;2.40;;;;;;;;;;4922693;29;20040;-90
2022/04/13 13:33:19;;;;;;;4.20;2.35;;;;;;;;;;4922584;29;20047;-89
2022/04/13 13:35:45;;;;;;;4.57;2.75;;;;;;;;;;4922535;29;20434;-89
2022/04/13 13:38:12;;;;;;;4.38;2.50;;;;;;;;;;4922199;29;20081;-89
2022/04/13 13:40:44;;;;;;;6.97;3.10;;;;;;;;;;4922380;29;20036;-89
2022/04/13 13:43:10;;;;;;;7.63;2.60;;;;;;;;;;4922448;29;20036;-87
2022/04/13 13:45:40;;;;;;;8.18;2.80;;;;;;;;;;4905868;29;20071;-89
2022/04/13 13:48:08;;;;;;;7.03;3.38;;;;;;;;;;4905642;29;20024;-89
2022/04/13 13:50:35;;;;;;;7.43;3.60;;;;;;;;;;4922029;29;20028;-89
2022/04/13 13:53:01;;;;;;;9.55;3.33;;;;;;;;;;4905474;29;20060;-89
2022/04/13 13:55:28;;;;;;;6.18;2.42;;;;;;;;;;4905520;29;20065;-89
2022/04/13 13:57:58;;;;;;;8.95;3.75;;;;;;;;;;4922121;29;20058;-89
2022/04/13 14:00:25;;;;;;;10.25;2.65;;;;;;;;;;4905400;29;20449;-89
2022/04/13 14:02:54;;;;;;;6.82;2.85;;;;;;;;;;4922168;29;20111;-88
2022/04/13 14:05:24;;;;;;;7.47;2.55;;;;;;;;;;4922146;29;20383;-89
2022/04/13 14:07:51;;;;;;;7.38;3.42;;;;;;;;;;4921900;29;20426;-89
2022/04/13 14:10:17;;;;;;;5.03;2.72;;;;;;;;;;4921963;29;20071;-88
2022/04/13 14:12:44;;;;;;;10.05;4.32;;;;;;;;;;4905014;29;20075;-89
2022/04/13 14:15:11;;;;;;;12.25;5.00;;;;;;;;;;4914305;29;20047;-89
2022/04/13 14:17:41;;;;;;;12.00;4.57;;;;;;;;;;4904174;29;20052;-89
2022/04/13 14:20:10;;;;;;;8.73;3.60;;;;;;;;;;4922050;29;20167;-89
2022/04/13 14:22:37;;;;;;;9.77;3.33;;;;;;;;;;4904906;29;20051;-89
2022/04/13 14:25:03;;;;;;;11.85;4.13;;;;;;;;;;4904949;29;20490;-88
2022/04/13 14:27:29;;;;;;;8.90;4.18;;;;;;;;;;4921673;29;20418;-88
2022/04/13 14:29:59;;;;;;;10.73;4.93;;;;;;;;;;4921582;29;20024;-88
2022/04/13 14:32:30;;;;;;;7.90;3.67;;;;;;;;;;4921356;29;20103;-89
2022/04/13 14:34:57;;;;;;;3.23;2.57;;;;;;;;;;4905037;29;20079;-89
2022/04/13 14:37:26;;;;;;;19.65;12.32;;;;;;;;;;4921437;29;20084;-88
2022/04/13 14:39:52;;;;;;;19.30;13.88;;;;;;;;;;4922017;29;20047;-89
2022/04/13 14:42:18;;;;;;;8.73;3.95;;;;;;;;;;4922439;29;20040;-89
2022/04/13 14:44:44;;;;;;;4.50;2.95;;;;;;;;;;4922259;29;20035;-90